createdAt,value
2023-03-13T00:01:00.807Z,100811.58
2023-03-13T00:05:01.407Z,100812.63
2023-03-13T00:09:02.102Z,100816.91
2023-03-13T00:13:02.644Z,100819.53
2023-03-13T00:17:01.886Z,100817.95
2023-03-13T00:21:02.470Z,100818.20
2023-03-13T00:25:01.791Z,100826.36
2023-03-13T00:29:01.872Z,100824.11
2023-03-13T00:33:08.897Z,100828.61
2023-03-13T00:37:11.761Z,100832.04
2023-03-13T00:41:12.879Z,100846.70
2023-03-13T00:45:17.289Z,100850.17
2023-03-13T00:49:16.893Z,100851.45
2023-03-13T00:53:19.951Z,100859.63
2023-03-13T00:57:21.986Z,100856.13
2023-03-13T01:01:24.904Z,100862.77
2023-03-13T01:05:24.852Z,100871.98
2023-03-13T01:09:28.025Z,100873.87
2023-03-13T01:13:22.407Z,100878.74
2023-03-13T01:17:32.611Z,100881.38
2023-03-13T01:21:32.989Z,100879.67
2023-03-13T01:25:35.834Z,100888.40
2023-03-13T01:29:35.830Z,100882.92
2023-03-13T01:33:49.578Z,100895.77
2023-03-13T01:37:52.829Z,100907.98
2023-03-13T01:41:51.370Z,100909.96
2023-03-13T01:45:52.607Z,100922.20
2023-03-13T01:49:56.126Z,100935.86
2023-03-13T01:54:13.874Z,100947.05
2023-03-13T01:58:16.614Z,100957.57
2023-03-13T02:02:15.869Z,100963.53
2023-03-13T02:06:14.369Z,100969.95
2023-03-13T02:10:08.959Z,100974.09
2023-03-13T02:14:14.439Z,100987.79
2023-03-13T02:18:14.960Z,100991.00
2023-03-13T02:22:18.719Z,100999.02
2023-03-13T02:26:18.945Z,101002.42
2023-03-13T02:30:28.977Z,100998.07
2023-03-13T02:34:29.055Z,101006.09
2023-03-13T02:38:28.692Z,101007.81
2023-03-13T02:42:22.932Z,101012.02
2023-03-13T02:46:31.088Z,101013.95
2023-03-13T02:50:32.979Z,101017.61
2023-03-13T02:54:36.084Z,101023.23
2023-03-13T02:58:35.650Z,101032.80
2023-03-13T03:02:41.105Z,101037.61
2023-03-13T03:06:35.167Z,101045.67
2023-03-13T03:10:34.947Z,101053.60
2023-03-13T03:14:45.053Z,101064.09
2023-03-13T03:18:48.219Z,101061.05
2023-03-13T03:22:48.143Z,101064.14
2023-03-13T03:26:52.841Z,101077.36
2023-03-13T03:30:57.211Z,101077.96
2023-03-13T03:34:56.281Z,101085.23
2023-03-13T03:38:51.529Z,101087.27
2023-03-13T03:43:00.277Z,101088.05
2023-03-13T03:47:09.512Z,101090.52
2023-03-13T03:51:16.247Z,101097.08
2023-03-13T03:55:18.330Z,101104.70
2023-03-13T03:59:21.136Z,101110.68
2023-03-13T04:03:22.067Z,101123.91
2023-03-13T04:07:20.926Z,101133.89
2023-03-13T04:11:24.168Z,101137.65
2023-03-13T04:15:29.974Z,101149.55
2023-03-13T04:19:32.181Z,101158.23
2023-03-13T04:23:36.303Z,101159.67
2023-03-13T04:27:35.295Z,101165.85
2023-03-13T04:31:34.622Z,101166.79
2023-03-13T04:36:05.429Z,101170.57
2023-03-13T04:40:26.220Z,101181.62
2023-03-13T04:44:35.203Z,101189.55
2023-03-13T04:48:38.741Z,101197.80
2023-03-13T04:52:54.321Z,101206.23
2023-03-13T04:57:07.222Z,101204.80
2023-03-13T05:01:29.851Z,101213.94
2023-03-13T05:06:02.567Z,101211.38
2023-03-13T05:10:17.982Z,101215.21
2023-03-13T05:14:23.831Z,101223.28
2023-03-13T05:18:29.250Z,101231.75
2023-03-13T05:22:58.835Z,101232.30
2023-03-13T05:27:04.550Z,101234.52
2023-03-13T05:31:13.395Z,101231.45
2023-03-13T05:35:13.357Z,101237.73
2023-03-13T05:39:22.058Z,101247.53
2023-03-13T05:43:10.357Z,101252.98
2023-03-13T05:47:09.415Z,101258.77
2023-03-13T05:51:23.620Z,101258.03
2023-03-13T05:55:44.113Z,101262.97
2023-03-13T06:00:13.374Z,101271.20
2023-03-13T06:04:27.318Z,101273.31
2023-03-13T06:08:32.833Z,101278.41
2023-03-13T06:12:34.112Z,101281.43
2023-03-13T06:16:31.713Z,101286.16
2023-03-13T06:20:42.246Z,101290.48
2023-03-13T06:24:39.368Z,101290.73
2023-03-13T06:28:39.994Z,101289.55
2023-03-13T06:32:31.673Z,101293.95
2023-03-13T06:36:19.485Z,101291.63
2023-03-13T06:40:05.847Z,101297.97
2023-03-13T06:43:52.252Z,101304.91
2023-03-13T06:47:39.348Z,101321.05
2023-03-13T06:51:25.747Z,101322.45
2023-03-13T06:55:12.252Z,101326.77
2023-03-13T06:59:19.528Z,101323.88
2023-03-13T07:03:16.308Z,101324.19
2023-03-13T07:07:29.397Z,101321.70
2023-03-13T07:11:32.811Z,101328.42
2023-03-13T07:15:33.870Z,101334.00
2023-03-13T07:19:34.535Z,101334.08
2023-03-13T07:23:35.115Z,101335.84
2023-03-13T07:27:31.842Z,101335.48
2023-03-13T07:31:33.659Z,101331.38
2023-03-13T07:35:30.323Z,101333.94
2023-03-13T07:39:32.297Z,101332.73
2023-03-13T07:43:29.834Z,101336.90
2023-03-13T07:47:30.168Z,101337.91
2023-03-13T07:51:40.775Z,101336.79
2023-03-13T07:55:45.885Z,101340.64
2023-03-13T07:59:42.892Z,101341.55
2023-03-13T08:03:43.836Z,101337.60
2023-03-13T08:07:46.711Z,101333.14
2023-03-13T08:11:47.071Z,101330.65
2023-03-13T08:15:44.041Z,101325.77
2023-03-13T08:19:43.949Z,101321.84
2023-03-13T08:23:40.617Z,101327.91
2023-03-13T08:27:43.691Z,101319.92
2023-03-13T08:31:39.817Z,101318.16
2023-03-13T08:35:40.756Z,101322.11
2023-03-13T08:39:43.614Z,101319.08
2023-03-13T08:43:43.854Z,101322.73
2023-03-13T08:47:47.557Z,101324.05
2023-03-13T08:51:48.715Z,101323.69
2023-03-13T08:55:51.543Z,101326.02
2023-03-13T08:59:51.822Z,101325.58
2023-03-13T09:03:54.595Z,101323.39
2023-03-13T09:07:53.659Z,101322.02
2023-03-13T09:11:52.255Z,101317.60
2023-03-13T09:15:50.378Z,101316.83
2023-03-13T09:20:01.726Z,101317.11
2023-03-13T09:24:01.660Z,101312.29
2023-03-13T09:28:04.377Z,101306.08
2023-03-13T09:32:04.941Z,101299.20
2023-03-13T09:36:09.742Z,101293.33
2023-03-13T09:40:07.829Z,101291.51
2023-03-13T09:44:07.165Z,101292.81
2023-03-13T09:48:09.643Z,101289.39
2023-03-13T09:52:16.184Z,101280.42
2023-03-13T09:56:13.914Z,101275.18
2023-03-13T10:00:16.751Z,101276.20
2023-03-13T10:04:18.062Z,101273.10
2023-03-13T10:08:18.529Z,101274.60
2023-03-13T10:12:12.697Z,101277.21
2023-03-13T10:16:13.526Z,101266.36
2023-03-13T10:20:10.277Z,101263.64
2023-03-13T10:24:11.138Z,101260.34
2023-03-13T10:28:11.981Z,101262.02
2023-03-13T10:32:12.499Z,101256.64
2023-03-13T10:36:09.294Z,101252.95
2023-03-13T10:40:07.788Z,101249.33
2023-03-13T10:44:08.727Z,101251.39
2023-03-13T10:48:09.063Z,101251.50
2023-03-13T10:52:08.039Z,101247.58
2023-03-13T10:56:08.400Z,101247.59
2023-03-13T11:00:04.946Z,101246.08
2023-03-13T11:04:03.429Z,101248.36
2023-03-13T11:07:57.933Z,101242.85
2023-03-13T11:12:00.456Z,101242.05
2023-03-13T11:15:57.022Z,101237.83
2023-03-13T11:19:57.727Z,101233.21
2023-03-13T11:23:53.854Z,101229.41
2023-03-13T11:27:54.388Z,101224.99
2023-03-13T11:31:50.862Z,101221.16
2023-03-13T11:35:54.350Z,101214.11
2023-03-13T11:39:49.763Z,101205.28
2023-03-13T11:43:48.170Z,101205.77
2023-03-13T11:47:48.883Z,101202.42
2023-03-13T11:51:49.343Z,101201.66
2023-03-13T11:55:46.393Z,101206.42
2023-03-13T11:59:48.210Z,101201.14
2023-03-13T12:03:46.517Z,101202.11
2023-03-13T12:07:46.143Z,101201.70
2023-03-13T12:11:48.306Z,101198.02
2023-03-13T12:15:48.409Z,101189.45
2023-03-13T12:19:45.938Z,101178.30
2023-03-13T12:23:46.212Z,101176.58
2023-03-13T12:27:43.925Z,101174.02
2023-03-13T12:31:46.430Z,101165.92
2023-03-13T12:35:40.655Z,101170.49
2023-03-13T12:39:45.221Z,101172.35
2023-03-13T12:43:42.283Z,101169.69
2023-03-13T12:47:42.825Z,101167.55
2023-03-13T12:51:39.245Z,101157.48
2023-03-13T12:55:39.919Z,101159.90
2023-03-13T12:59:36.233Z,101160.20
2023-03-13T13:03:34.226Z,101155.54
2023-03-13T13:07:34.841Z,101154.92
2023-03-13T13:11:35.670Z,101147.77
2023-03-13T13:15:32.491Z,101147.98
2023-03-13T13:19:33.412Z,101144.57
2023-03-13T13:23:30.345Z,101138.09
2023-03-13T13:27:29.095Z,101136.36
2023-03-13T13:31:23.728Z,101134.32
2023-03-13T13:35:24.207Z,101135.55
2023-03-13T13:39:22.087Z,101135.48
2023-03-13T13:43:22.808Z,101133.27
2023-03-13T13:47:19.220Z,101143.46
2023-03-13T13:51:19.795Z,101145.38
2023-03-13T13:55:23.012Z,101142.69
2023-03-13T13:59:27.488Z,101138.44
2023-03-13T14:03:24.077Z,101130.42
2023-03-13T14:07:25.024Z,101126.17
2023-03-13T14:11:24.402Z,101126.65
2023-03-13T14:15:24.719Z,101125.21
2023-03-13T14:19:20.166Z,101125.29
2023-03-13T14:23:19.416Z,101114.20
2023-03-13T14:27:16.512Z,101108.16
2023-03-13T14:31:17.215Z,101107.97
2023-03-13T14:35:13.242Z,101102.98
2023-03-13T14:39:13.589Z,101104.11
2023-03-13T14:43:11.405Z,101109.40
2023-03-13T14:47:10.761Z,101111.95
2023-03-13T14:51:16.093Z,101108.51
2023-03-13T14:55:17.307Z,101109.80
2023-03-13T14:59:18.441Z,101110.04
2023-03-13T15:03:18.634Z,101106.65
2023-03-13T15:07:15.384Z,101103.01
2023-03-13T15:11:18.030Z,101104.52
2023-03-13T15:15:12.081Z,101100.42
2023-03-13T15:19:16.588Z,101096.48
2023-03-13T15:22:56.429Z,101098.02
2023-03-13T15:26:52.484Z,101107.27
2023-03-13T15:30:52.884Z,101111.36
2023-03-13T15:34:49.377Z,101112.03
2023-03-13T15:38:50.861Z,101114.94
2023-03-13T15:42:45.245Z,101124.53
2023-03-13T15:46:49.510Z,101133.40
2023-03-13T15:50:47.507Z,101140.89
2023-03-13T15:54:48.156Z,101151.61
2023-03-13T15:58:45.521Z,101147.84
2023-03-13T16:02:46.761Z,101146.59
2023-03-13T16:06:41.442Z,101147.01
2023-03-13T16:10:40.144Z,101147.02
2023-03-13T16:14:40.852Z,101147.83
2023-03-13T16:18:42.142Z,101152.59
2023-03-13T16:22:40.354Z,101152.33
2023-03-13T16:26:41.703Z,101151.84
2023-03-13T16:30:38.539Z,101151.67
2023-03-13T16:34:32.784Z,101163.48
2023-03-13T16:38:19.143Z,101162.52
2023-03-13T16:42:05.200Z,101158.40
2023-03-13T16:45:53.668Z,101159.06
2023-03-13T16:49:47.767Z,101157.92
2023-03-13T16:53:41.642Z,101160.02
2023-03-13T16:57:38.645Z,101152.35
2023-03-13T17:01:39.190Z,101137.20
2023-03-13T17:05:35.292Z,101133.46
2023-03-13T17:09:39.482Z,101130.59
2023-03-13T17:13:36.761Z,101126.51
2023-03-13T17:17:38.046Z,101128.06
2023-03-13T17:21:35.724Z,101126.88
2023-03-13T17:25:31.952Z,101129.33
2023-03-13T17:29:18.608Z,101129.46
2023-03-13T17:33:04.813Z,101119.26
2023-03-13T17:36:51.651Z,101113.86
2023-03-13T17:40:37.452Z,101109.31
2023-03-13T17:44:24.099Z,101104.16
2023-03-13T17:48:10.316Z,101105.67
2023-03-13T17:51:56.490Z,101107.91
2023-03-13T17:55:48.562Z,101098.09
2023-03-13T17:59:41.545Z,101097.13
2023-03-13T18:03:42.233Z,101096.13
2023-03-13T18:07:42.775Z,101094.39
2023-03-13T18:11:44.567Z,101101.61
2023-03-13T18:15:45.562Z,101101.34
2023-03-13T18:19:50.900Z,101096.50
2023-03-13T18:23:47.725Z,101100.24
2023-03-13T18:27:44.898Z,101097.02
2023-03-13T18:31:45.572Z,101094.41
2023-03-13T18:35:31.875Z,101101.34
2023-03-13T18:39:32.948Z,101100.28
2023-03-13T18:43:30.879Z,101100.62
2023-03-13T18:47:27.536Z,101100.11
2023-03-13T18:51:30.345Z,101097.78
2023-03-13T18:55:27.085Z,101099.10
2023-03-13T18:59:27.709Z,101090.20
2023-03-13T19:03:24.709Z,101093.23
2023-03-13T19:07:29.296Z,101093.41
2023-03-13T19:11:26.047Z,101092.91
2023-03-13T19:15:30.732Z,101097.12
2023-03-13T19:19:28.196Z,101099.38
2023-03-13T19:23:29.759Z,101101.66
2023-03-13T19:27:27.292Z,101100.35
2023-03-13T19:31:27.782Z,101101.51
2023-03-13T19:35:28.578Z,101095.37
2023-03-13T19:39:29.779Z,101102.73
2023-03-13T19:43:28.435Z,101099.88
2023-03-13T19:47:29.886Z,101101.58
2023-03-13T19:51:28.042Z,101104.52
2023-03-13T19:55:28.779Z,101105.14
2023-03-13T19:59:28.836Z,101101.86
2023-03-13T20:03:34.762Z,101102.34
2023-03-13T20:07:32.972Z,101107.54
2023-03-13T20:11:33.860Z,101106.68
2023-03-13T20:15:43.526Z,101107.48
2023-03-13T20:19:44.693Z,101107.98
2023-03-13T20:23:42.499Z,101103.33
2023-03-13T20:27:42.709Z,101104.12
2023-03-13T20:31:42.835Z,101107.20
2023-03-13T20:35:47.896Z,101103.95
2023-03-13T20:39:47.963Z,101099.94
2023-03-13T20:43:51.911Z,101101.89
2023-03-13T20:47:52.813Z,101106.36
2023-03-13T20:51:55.909Z,101106.41
2023-03-13T20:55:56.284Z,101107.02
2023-03-13T20:59:57.770Z,101109.19
2023-03-13T21:03:59.817Z,101106.84
2023-03-13T21:08:00.848Z,101105.15
2023-03-13T21:12:02.702Z,101111.31
2023-03-13T21:16:03.443Z,101108.14
2023-03-13T21:20:02.025Z,101110.71
2023-03-13T21:24:04.776Z,101110.46
2023-03-13T21:28:03.934Z,101105.92
2023-03-13T21:32:06.471Z,101105.77
2023-03-13T21:36:06.268Z,101105.90
2023-03-13T21:40:08.852Z,101104.46
2023-03-13T21:44:09.016Z,101103.88
2023-03-13T21:48:10.890Z,101101.88
2023-03-13T21:52:09.029Z,101099.46
2023-03-13T21:56:11.910Z,101103.16
2023-03-13T22:00:17.053Z,101103.29
2023-03-13T22:04:18.834Z,101102.63
2023-03-13T22:08:20.051Z,101109.59
2023-03-13T22:12:22.481Z,101106.15
2023-03-13T22:16:22.103Z,101101.98
2023-03-13T22:20:31.972Z,101098.27
2023-03-13T22:24:32.269Z,101097.46
2023-03-13T22:28:34.498Z,101092.73
2023-03-13T22:32:33.152Z,101101.30
2023-03-13T22:36:35.987Z,101099.93
2023-03-13T22:40:36.096Z,101104.69
2023-03-13T22:44:39.642Z,101103.52
2023-03-13T22:48:38.936Z,101097.34
2023-03-13T22:52:41.651Z,101095.71
2023-03-13T22:56:43.099Z,101093.64
2023-03-13T23:00:46.130Z,101099.18
2023-03-13T23:04:45.089Z,101101.38
2023-03-13T23:08:50.043Z,101097.46
2023-03-13T23:12:48.185Z,101094.04
2023-03-13T23:16:51.604Z,101082.80
2023-03-13T23:20:50.132Z,101076.02
2023-03-13T23:24:54.221Z,101080.39
2023-03-13T23:28:53.208Z,101082.17
2023-03-13T23:32:55.531Z,101084.11
2023-03-13T23:36:55.160Z,101079.33
2023-03-13T23:41:02.580Z,101073.69
2023-03-13T23:45:02.217Z,101063.52
2023-03-13T23:49:05.517Z,101054.78
2023-03-13T23:53:04.224Z,101046.59
2023-03-13T23:57:06.721Z,101042.05
